Time;durP1;ratioP1;P1;durP2;ratioP2;P2;SDS_P1;SDS_P2;PMS_P1;PMS_P2;Temp;Humidity;BMP_temperature;BMP_pressure;BME280_temperature;BME280_humidity;BME280_pressure;Samples;Min_cycle;Max_cycle;Signal;HPM_P1;HPM_P2
2021/04/02 00:01:06;;;;;;;7.38;3.05;;;11.70;66.10;;;;;;5000587;28;20479;-60
2021/04/02 00:03:34;;;;;;;4.18;3.03;;;11.60;66.30;;;;;;4993697;28;20026;-61
2021/04/02 00:06:05;;;;;;;5.53;3.40;;;11.60;66.80;;;;;;5010890;28;20030;-61
2021/04/02 00:08:31;;;;;;;8.35;3.30;;;11.60;67.10;;;;;;4993883;28;20065;-60
2021/04/02 00:10:59;;;;;;;4.85;2.70;;;11.40;67.90;;;;;;4992977;28;20069;-61
2021/04/02 00:13:38;;;;;;;12.70;3.88;;;11.40;68.00;;;;;;5011133;28;20026;-61
2021/04/02 00:16:05;;;;;;;9.75;4.18;;;11.40;68.40;;;;;;4993057;28;20030;-60
2021/04/02 00:18:31;;;;;;;9.07;3.83;;;11.40;68.50;;;;;;5011228;28;20026;-60
2021/04/02 00:20:59;;;;;;;8.52;4.43;;;11.30;68.90;;;;;;5010506;28;20030;-61
2021/04/02 00:23:25;;;;;;;4.80;3.13;;;11.30;69.20;;;;;;5010908;28;20173;-61
2021/04/02 00:25:52;;;;;;;5.07;3.92;;;11.30;69.20;;;;;;5010459;28;20030;-60
2021/04/02 00:28:18;;;;;;;5.15;3.78;;;11.20;69.80;;;;;;4993745;28;20112;-61
2021/04/02 00:30:47;;;;;;;8.35;4.50;;;11.00;70.40;;;;;;5010971;28;20037;-61
2021/04/02 00:33:14;;;;;;;7.82;3.78;;;11.00;70.70;;;;;;5011143;28;20392;-61
2021/04/02 00:35:40;;;;;;;5.70;4.18;;;11.10;70.90;;;;;;4993565;28;20034;-61
2021/04/02 00:38:07;;;;;;;8.63;4.65;;;10.90;71.50;;;;;;5010617;28;20466;-61
2021/04/02 00:40:37;;;;;;;10.25;5.03;;;11.00;71.50;;;;;;5011188;28;20100;-61
2021/04/02 00:43:03;;;;;;;8.35;3.80;;;11.00;71.80;;;;;;5010411;28;20026;-61
2021/04/02 00:45:29;;;;;;;8.55;4.03;;;11.00;71.80;;;;;;5010639;28;20033;-63
2021/04/02 00:47:56;;;;;;;8.18;4.13;;;11.10;72.00;;;;;;5010337;28;20092;-60
2021/04/02 00:50:55;;;;;;;8.88;4.13;;;11.20;71.80;;;;;;5010890;28;20168;-61
2021/04/02 00:53:23;;;;;;;5.38;4.20;;;11.10;71.90;;;;;;4988195;28;20037;-60
2021/04/02 00:55:50;;;;;;;8.10;4.40;;;11.00;72.60;;;;;;5011011;28;20044;-61
2021/04/02 00:58:18;;;;;;;7.28;5.10;;;11.00;72.60;;;;;;4993190;28;20022;-60
2021/04/02 01:00:44;;;;;;;7.47;4.35;;;10.90;73.50;;;;;;4993176;28;20022;-61
2021/04/02 01:03:10;;;;;;;6.35;4.50;;;10.90;73.50;;;;;;5009912;28;20037;-61
2021/04/02 01:05:42;;;;;;;8.32;4.82;;;10.90;73.70;;;;;;5010215;28;20034;-60
2021/04/02 01:08:10;;;;;;;;;;;10.80;74.30;;;;;;5010597;28;20111;-60
2021/04/02 01:10:36;;;;;;;11.18;5.05;;;10.70;75.00;;;;;;5010537;28;19944;-61
2021/04/02 01:13:07;;;;;;;7.63;4.97;;;10.70;75.70;;;;;;5010159;28;20049;-61
2021/04/02 01:15:36;;;;;;;6.88;5.15;;;10.80;75.20;;;;;;5010813;28;20044;-60
2021/04/02 01:18:08;;;;;;;5.57;4.05;;;10.70;75.70;;;;;;4992276;28;20032;-60
2021/04/02 01:20:35;;;;;;;5.93;4.63;;;10.60;76.50;;;;;;4993032;28;20026;-60
2021/04/02 01:23:14;;;;;;;8.15;4.30;;;10.80;76.20;;;;;;4992191;28;20030;-62
2021/04/02 01:25:47;;;;;;;8.02;5.25;;;10.60;76.70;;;;;;5013844;28;20033;-61
2021/04/02 01:28:43;;;;;;;6.13;4.75;;;10.50;77.40;;;;;;5013631;28;20443;-61
2021/04/02 01:31:10;;;;;;;5.82;4.15;;;10.50;77.70;;;;;;5013357;28;20432;-60
2021/04/02 01:33:37;;;;;;;9.10;4.72;;;10.60;77.80;;;;;;5013541;28;20018;-61
2021/04/02 01:36:03;;;;;;;6.43;5.80;;;10.60;78.30;;;;;;4979082;28;20073;-60
2021/04/02 01:38:36;;;;;;;15.55;5.95;;;10.60;78.20;;;;;;5013608;28;20112;-61
2021/04/02 01:41:08;;;;;;;15.43;5.15;;;10.50;78.60;;;;;;4995699;28;20417;-60
2021/04/02 01:43:43;;;;;;;11.38;5.72;;;10.40;79.10;;;;;;4996197;28;20033;-60
2021/04/02 01:46:10;;;;;;;7.65;4.95;;;10.40;80.00;;;;;;5013184;28;20038;-60
2021/04/02 01:48:39;;;;;;;5.80;4.63;;;10.40;79.60;;;;;;5013647;28;20100;-60
2021/04/02 01:51:05;;;;;;;10.60;5.18;;;10.40;80.00;;;;;;5012732;28;20069;-61
2021/04/02 01:53:43;;;;;;;8.07;5.43;;;10.50;79.90;;;;;;5013492;28;20379;-61
2021/04/02 01:56:09;;;;;;;6.32;5.55;;;10.40;80.60;;;;;;4995254;28;20107;-60
2021/04/02 01:58:39;;;;;;;7.28;5.07;;;10.30;80.90;;;;;;5013577;28;20037;-59
2021/04/02 02:01:06;;;;;;;6.15;5.55;;;10.30;81.00;;;;;;4995396;28;20046;-60
2021/04/02 02:03:33;;;;;;;5.38;4.85;;;10.10;81.80;;;;;;5013414;28;20032;-60
2021/04/02 02:06:01;;;;;;;8.18;5.70;;;10.10;82.20;;;;;;4995033;28;20033;-60
2021/04/02 02:08:28;;;;;;;7.78;5.45;;;10.10;82.40;;;;;;4996127;28;20030;-60
2021/04/02 02:11:06;;;;;;;6.35;5.38;;;10.10;82.40;;;;;;5013091;28;20037;-59
2021/04/02 02:13:33;;;;;;;9.38;5.10;;;10.00;83.00;;;;;;5013370;28;20479;-61
2021/04/02 02:16:02;;;;;;;6.10;4.95;;;9.90;83.60;;;;;;4994854;28;20094;-58
2021/04/02 02:18:28;;;;;;;8.35;5.45;;;10.10;83.40;;;;;;5012907;28;20022;-60
2021/04/02 02:20:55;;;;;;;6.90;5.35;;;9.90;83.50;;;;;;5012985;28;20494;-61
2021/04/02 02:23:21;;;;;;;7.90;5.63;;;9.90;83.90;;;;;;5013268;28;20497;-60
2021/04/02 02:25:48;;;;;;;8.95;5.88;;;10.00;83.50;;;;;;4995237;28;20057;-61
2021/04/02 02:28:14;;;;;;;11.13;5.93;;;10.00;83.50;;;;;;5012282;28;20348;-61
2021/04/02 02:30:42;;;;;;;8.07;5.32;;;9.90;83.90;;;;;;4994978;28;20386;-61
2021/04/02 02:33:08;;;;;;;5.95;4.90;;;10.00;83.60;;;;;;4994181;28;20041;-60
2021/04/02 02:35:33;;;;;;;6.55;5.47;;;10.10;83.50;;;;;;5012802;28;20108;-60
2021/04/02 02:38:01;;;;;;;7.50;5.97;;;10.10;82.80;;;;;;4990864;28;20078;-61
2021/04/02 02:40:30;;;;;;;8.35;6.00;;;9.90;83.40;;;;;;4992873;28;20061;-61
2021/04/02 02:42:57;;;;;;;7.50;5.55;;;9.90;84.20;;;;;;4992572;28;20422;-61
2021/04/02 02:45:24;;;;;;;9.55;5.70;;;9.80;84.50;;;;;;4993002;28;20383;-61
2021/04/02 02:47:50;;;;;;;8.63;6.28;;;9.60;85.20;;;;;;4992718;28;20389;-61
2021/04/02 02:50:20;;;;;;;9.55;5.57;;;9.70;85.50;;;;;;4992223;28;20234;-60
2021/04/02 02:52:47;;;;;;;6.93;5.57;;;9.70;85.40;;;;;;4992840;28;20027;-61
2021/04/02 02:55:14;;;;;;;7.53;5.22;;;9.60;85.30;;;;;;4992046;28;20537;-61
2021/04/02 02:57:41;;;;;;;6.95;5.03;;;9.80;85.20;;;;;;4991490;28;20026;-60
2021/04/02 03:00:11;;;;;;;7.30;6.03;;;9.80;85.80;;;;;;4990747;28;20085;-61
2021/04/02 03:02:38;;;;;;;8.52;5.78;;;9.90;85.00;;;;;;4992733;28;20085;-60
2021/04/02 03:05:05;;;;;;;7.97;5.30;;;9.80;85.10;;;;;;4991768;28;20412;-60
2021/04/02 03:07:34;;;;;;;7.40;5.70;;;9.80;85.20;;;;;;4992740;28;20412;-60
2021/04/02 03:10:00;;;;;;;5.90;4.82;;;9.70;86.00;;;;;;4991997;28;20157;-60
2021/04/02 03:12:28;;;;;;;5.90;5.22;;;9.80;86.00;;;;;;4991434;28;20034;-60
2021/04/02 03:14:53;;;;;;;7.93;5.03;;;9.80;85.50;;;;;;4992508;28;20035;-61
2021/04/02 03:17:21;;;;;;;13.70;5.68;;;9.90;85.50;;;;;;4991609;28;20037;-59
2021/04/02 03:19:49;;;;;;;5.15;4.47;;;9.80;85.50;;;;;;4992696;28;20103;-60
2021/04/02 03:22:15;;;;;;;5.60;4.90;;;9.80;85.50;;;;;;4974250;28;20030;-60
2021/04/02 03:24:42;;;;;;;5.85;5.18;;;9.90;84.90;;;;;;4990954;28;20034;-60
2021/04/02 03:27:09;;;;;;;16.75;5.43;;;9.80;85.20;;;;;;4991679;28;20027;-60
2021/04/02 03:29:35;;;;;;;8.27;5.72;;;9.80;84.90;;;;;;4992181;28;20034;-60
2021/04/02 03:32:08;;;;;;;10.05;5.20;;;10.00;84.40;;;;;;4990437;28;20049;-60
2021/04/02 03:34:35;;;;;;;6.22;4.78;;;9.90;84.50;;;;;;4990899;28;20030;-60
2021/04/02 03:37:04;;;;;;;6.75;4.57;;;9.80;84.00;;;;;;4999240;28;20443;-60
2021/04/02 03:39:32;;;;;;;7.95;4.88;;;9.80;83.70;;;;;;5011973;28;20095;-60
2021/04/02 03:42:02;;;;;;;4.78;4.20;;;9.80;83.40;;;;;;4993698;28;20212;-60
2021/04/02 03:44:33;;;;;;;6.60;4.72;;;9.80;83.50;;;;;;5011037;28;20479;-60
2021/04/02 03:47:01;;;;;;;;;;;9.90;83.60;;;;;;5011276;28;20034;-60
2021/04/02 03:49:32;;;;;;;7.22;4.93;;;9.90;83.30;;;;;;5011344;28;20306;-60
2021/04/02 03:52:03;;;;;;;9.77;4.90;;;10.00;83.10;;;;;;5011586;28;20107;-60
2021/04/02 03:54:31;;;;;;;5.10;4.45;;;9.90;83.40;;;;;;5012084;28;20236;-60
2021/04/02 03:56:59;;;;;;;7.43;5.88;;;9.90;83.50;;;;;;4993556;28;20022;-60
2021/04/02 03:59:26;;;;;;;7.35;4.70;;;9.70;84.40;;;;;;4992893;28;20501;-59
2021/04/02 04:01:53;;;;;;;8.40;4.55;;;9.80;84.60;;;;;;4993340;28;20438;-60
2021/04/02 04:04:23;;;;;;;6.30;4.93;;;9.90;84.00;;;;;;5010746;28;20030;-60
2021/04/02 04:06:56;;;;;;;5.45;4.93;;;9.90;84.10;;;;;;4993295;28;20053;-60
2021/04/02 04:09:23;;;;;;;6.82;4.70;;;9.80;84.40;;;;;;5010688;28;20045;-60
2021/04/02 04:11:50;;;;;;;8.13;4.82;;;9.80;84.80;;;;;;5011155;28;20025;-60
2021/04/02 04:14:18;;;;;;;5.40;4.22;;;9.80;84.60;;;;;;4992534;28;20041;-60
2021/04/02 04:16:46;;;;;;;5.60;5.00;;;9.80;85.00;;;;;;5010806;28;20032;-61
2021/04/02 04:19:14;;;;;;;6.70;4.40;;;9.90;84.60;;;;;;5010363;28;20105;-61
2021/04/02 04:21:45;;;;;;;7.38;5.15;;;9.70;85.60;;;;;;5011165;28;20024;-61
2021/04/02 04:24:20;;;;;;;5.20;4.70;;;9.80;85.00;;;;;;5010443;28;20438;-61
2021/04/02 04:26:48;;;;;;;12.02;5.40;;;9.60;85.80;;;;;;4977163;28;20041;-61
2021/04/02 04:29:39;;;;;;;8.75;5.18;;;9.60;86.20;;;;;;5010404;28;20029;-61
2021/04/02 04:32:06;;;;;;;6.38;5.00;;;9.60;86.30;;;;;;4992512;28;20400;-61
2021/04/02 04:34:33;;;;;;;10.02;4.90;;;9.60;85.80;;;;;;5010902;28;20038;-61
2021/04/02 04:37:01;;;;;;;11.18;5.03;;;9.50;85.80;;;;;;5010283;28;20046;-61
2021/04/02 04:39:29;;;;;;;8.25;5.25;;;9.60;85.50;;;;;;5010083;28;20037;-61
2021/04/02 04:41:56;;;;;;;7.35;5.13;;;9.40;85.20;;;;;;5010444;28;20399;-60
2021/04/02 04:44:24;;;;;;;7.75;4.68;;;9.60;84.60;;;;;;5010199;28;20379;-60
2021/04/02 04:46:49;;;;;;;5.63;4.55;;;9.50;85.00;;;;;;5010899;28;20026;-60
2021/04/02 04:49:16;;;;;;;5.25;4.40;;;9.50;83.70;;;;;;5009888;28;20041;-60
2021/04/02 04:51:42;;;;;;;5.95;4.75;;;9.50;83.60;;;;;;5010792;28;20097;-60
2021/04/02 04:54:09;;;;;;;5.07;4.57;;;9.30;83.10;;;;;;4992378;28;20210;-61
2021/04/02 04:56:38;;;;;;;5.25;4.43;;;9.40;82.90;;;;;;4993207;28;20030;-60
2021/04/02 04:59:06;;;;;;;5.68;4.53;;;9.50;81.40;;;;;;5011370;28;20133;-60
2021/04/02 05:01:40;;;;;;;4.65;4.25;;;9.40;81.20;;;;;;5014172;28;20145;-60
2021/04/02 05:04:08;;;;;;;6.57;4.88;;;9.50;80.00;;;;;;4995775;28;20029;-60
2021/04/02 05:06:35;;;;;;;5.05;4.07;;;9.30;80.10;;;;;;5013935;28;20477;-60
2021/04/02 05:09:03;;;;;;;5.32;4.80;;;9.30;80.00;;;;;;5014250;28;20026;-60
2021/04/02 05:11:31;;;;;;;7.03;4.22;;;9.30;79.50;;;;;;5013575;28;20037;-60
2021/04/02 05:13:57;;;;;;;6.32;4.25;;;9.50;79.00;;;;;;4996335;28;20033;-60
2021/04/02 05:16:24;;;;;;;16.58;4.57;;;9.60;78.80;;;;;;4979822;28;20080;-61
2021/04/02 05:18:54;;;;;;;6.00;4.68;;;9.70;78.60;;;;;;5013892;28;20057;-61
2021/04/02 05:21:20;;;;;;;6.53;4.47;;;9.80;77.90;;;;;;5013381;28;20026;-61
2021/04/02 05:23:46;;;;;;;6.13;4.85;;;9.60;77.90;;;;;;4995836;28;20029;-60
2021/04/02 05:26:14;;;;;;;6.88;3.97;;;9.60;77.70;;;;;;5013047;28;20108;-60
2021/04/02 05:28:40;;;;;;;6.68;4.07;;;9.70;77.30;;;;;;5013406;28;20386;-60
2021/04/02 05:31:06;;;;;;;4.80;4.00;;;9.70;77.60;;;;;;5013389;28;20037;-61
2021/04/02 05:33:32;;;;;;;3.72;3.13;;;9.70;77.60;;;;;;4996173;28;20116;-60
2021/04/02 05:35:58;;;;;;;4.28;3.85;;;9.70;77.70;;;;;;4995871;28;20108;-60
2021/04/02 05:38:24;;;;;;;7.85;4.20;;;9.50;78.50;;;;;;5013307;28;20065;-60
2021/04/02 05:40:50;;;;;;;6.72;3.72;;;9.50;78.90;;;;;;5013634;28;20079;-60
2021/04/02 05:43:36;;;;;;;5.95;4.00;;;9.50;79.00;;;;;;5012813;28;20069;-59
2021/04/02 05:46:03;;;;;;;3.75;3.35;;;9.50;79.10;;;;;;5013285;28;20114;-60
2021/04/02 05:48:32;;;;;;;6.68;4.10;;;9.70;79.00;;;;;;4995096;28;20029;-61
2021/04/02 05:50:58;;;;;;;4.65;4.05;;;9.70;78.80;;;;;;5013372;28;20018;-59
2021/04/02 05:53:26;;;;;;;3.75;3.20;;;9.60;79.00;;;;;;5012976;28;20029;-60
2021/04/02 05:55:54;;;;;;;5.72;3.97;;;9.70;78.70;;;;;;4995936;28;20331;-60
2021/04/02 05:58:20;;;;;;;5.22;4.10;;;9.60;79.30;;;;;;5012747;28;20022;-59
2021/04/02 06:00:45;;;;;;;5.45;4.07;;;9.70;79.00;;;;;;4995794;28;20049;-60
2021/04/02 06:03:14;;;;;;;3.97;3.60;;;9.80;79.10;;;;;;5013143;28;20555;-60
2021/04/02 06:05:39;;;;;;;6.07;3.67;;;9.90;78.90;;;;;;5013168;28;20109;-60
2021/04/02 06:08:05;;;;;;;4.90;4.03;;;10.00;78.60;;;;;;5013255;28;20519;-60
2021/04/02 06:10:31;;;;;;;4.55;3.70;;;9.90;78.50;;;;;;4994793;28;20364;-60
2021/04/02 06:12:58;;;;;;;5.45;4.30;;;10.00;78.50;;;;;;4995130;28;20033;-60
2021/04/02 06:15:24;;;;;;;4.40;3.72;;;10.00;78.60;;;;;;4994965;28;20156;-60
2021/04/02 06:18:11;;;;;;;11.15;4.30;;;10.00;78.80;;;;;;5013136;28;20030;-60
2021/04/02 06:20:40;;;;;;;5.45;3.78;;;10.20;77.90;;;;;;4995365;28;20022;-60
2021/04/02 06:23:09;;;;;;;5.72;3.90;;;10.20;77.80;;;;;;4995075;28;20112;-60
2021/04/02 06:25:37;;;;;;;5.82;4.10;;;10.20;78.10;;;;;;5012721;28;20030;-59
2021/04/02 06:28:09;;;;;;;4.82;3.55;;;10.20;78.40;;;;;;5012384;28;20040;-60
2021/04/02 06:30:38;;;;;;;5.22;3.78;;;10.20;78.40;;;;;;4994920;28;20033;-60
2021/04/02 06:33:06;;;;;;;5.35;3.80;;;10.30;77.70;;;;;;4994713;28;20026;-61
2021/04/02 06:35:32;;;;;;;5.43;3.50;;;10.30;77.60;;;;;;4994117;28;20483;-61
2021/04/02 06:37:58;;;;;;;6.18;3.55;;;10.30;77.50;;;;;;5012623;28;20152;-60
2021/04/02 06:40:24;;;;;;;4.38;3.97;;;10.40;77.10;;;;;;5011669;28;20387;-61
2021/04/02 06:42:50;;;;;;;4.30;3.70;;;10.50;76.60;;;;;;4994838;28;20026;-62
2021/04/02 06:45:18;;;;;;;7.25;4.05;;;10.60;76.50;;;;;;4993816;28;20092;-62
2021/04/02 06:47:44;;;;;;;5.80;3.80;;;10.70;76.70;;;;;;4994687;28;20387;-60
2021/04/02 06:50:14;;;;;;;4.82;3.97;;;10.70;76.10;;;;;;4994769;28;20121;-61
2021/04/02 06:52:40;;;;;;;5.22;4.20;;;10.80;76.70;;;;;;4994661;28;20040;-60
2021/04/02 06:55:07;;;;;;;5.28;4.00;;;10.90;78.20;;;;;;5012337;28;20041;-61
2021/04/02 06:57:34;;;;;;;4.45;4.05;;;10.90;76.20;;;;;;4993817;28;20029;-61
2021/04/02 07:00:00;;;;;;;5.15;3.63;;;10.80;76.20;;;;;;4994368;28;20030;-60
2021/04/02 07:02:27;;;;;;;3.88;3.47;;;10.60;77.10;;;;;;5011603;28;20029;-61
2021/04/02 07:04:55;;;;;;;8.20;3.83;;;10.70;77.00;;;;;;4994228;28;20391;-61
2021/04/02 07:07:21;;;;;;;6.40;4.10;;;10.70;77.60;;;;;;4993562;28;20426;-61
2021/04/02 07:09:49;;;;;;;6.55;4.20;;;10.50;77.30;;;;;;5012379;28;20092;-60
2021/04/02 07:12:17;;;;;;;4.13;3.38;;;10.70;77.50;;;;;;4993722;28;20034;-60
2021/04/02 07:14:44;;;;;;;5.40;4.05;;;10.70;77.50;;;;;;4994346;28;20037;-61
2021/04/02 07:17:11;;;;;;;5.22;4.70;;;10.80;76.90;;;;;;5011485;28;20033;-60
2021/04/02 07:19:37;;;;;;;6.25;4.18;;;10.80;76.90;;;;;;4977258;28;20058;-61
2021/04/02 07:22:04;;;;;;;5.68;4.75;;;10.70;77.50;;;;;;5011273;28;20022;-61
2021/04/02 07:24:30;;;;;;;5.72;4.22;;;10.80;77.30;;;;;;5011105;28;20038;-61
2021/04/02 07:26:56;;;;;;;4.50;3.80;;;10.90;77.30;;;;;;4994063;28;20096;-61
2021/04/02 07:29:23;;;;;;;6.43;4.60;;;10.90;76.80;;;;;;5011343;28;20096;-61
2021/04/02 07:31:50;;;;;;;7.25;4.20;;;10.80;77.60;;;;;;4994052;28;20108;-61
2021/04/02 07:34:17;;;;;;;4.95;4.00;;;10.80;76.70;;;;;;5010949;28;20101;-60
2021/04/02 07:36:46;;;;;;;5.22;4.43;;;10.70;77.50;;;;;;4992875;28;20049;-61
2021/04/02 07:39:12;;;;;;;5.95;4.60;;;10.60;77.80;;;;;;4993340;28;20034;-61
2021/04/02 07:41:44;;;;;;;9.73;5.07;;;10.60;77.60;;;;;;4993164;28;20026;-61
2021/04/02 07:44:14;;;;;;;5.10;4.38;;;10.70;77.70;;;;;;4993258;28;20048;-60
2021/04/02 07:46:59;;;;;;;7.53;5.15;;;10.80;78.10;;;;;;5011261;28;20022;-61
2021/04/02 07:49:29;;;;;;;6.00;5.05;;;10.60;77.80;;;;;;5010463;28;20121;-61
2021/04/02 07:51:55;;;;;;;7.07;4.97;;;10.50;78.00;;;;;;4993191;28;20030;-61
2021/04/02 07:54:31;;;;;;;5.70;4.45;;;10.60;78.00;;;;;;4992607;28;20030;-61
2021/04/02 07:56:57;;;;;;;5.97;4.75;;;10.70;77.80;;;;;;4977396;28;20026;-61
2021/04/02 07:59:49;;;;;;;6.53;5.13;;;10.80;77.60;;;;;;5010654;28;20068;-63
2021/04/02 08:02:16;;;;;;;;;;;10.90;77.40;;;;;;4989956;28;20158;-61
2021/04/02 08:04:43;;;;;;;8.10;4.32;;;11.00;77.10;;;;;;4993489;28;20374;-60
2021/04/02 08:07:42;;;;;;;5.05;4.55;;;11.00;76.40;;;;;;5011091;28;20386;-62
2021/04/02 08:10:12;;;;;;;7.07;4.47;;;11.00;76.40;;;;;;4987903;28;20502;-62
2021/04/02 08:12:38;;;;;;;5.95;4.57;;;10.70;76.70;;;;;;4992772;28;20026;-60
2021/04/02 08:15:11;;;;;;;4.80;4.28;;;10.80;76.80;;;;;;5010769;28;20084;-60
2021/04/02 08:17:37;;;;;;;5.10;4.03;;;10.80;76.40;;;;;;5009851;28;20038;-61
2021/04/02 08:20:13;;;;;;;4.78;4.25;;;10.70;77.00;;;;;;5010926;28;20041;-60
2021/04/02 08:22:40;;;;;;;5.25;4.57;;;10.90;76.60;;;;;;5010334;28;20122;-61
2021/04/02 08:25:09;;;;;;;7.53;4.68;;;10.90;75.90;;;;;;5010567;28;20069;-61
2021/04/02 08:27:35;;;;;;;9.85;5.35;;;10.90;76.20;;;;;;4992375;28;20042;-61
2021/04/02 08:30:04;;;;;;;7.00;4.90;;;11.00;76.60;;;;;;5010363;28;20026;-61
2021/04/02 08:32:49;;;;;;;4.90;3.92;;;10.90;76.70;;;;;;4976760;28;20021;-61
2021/04/02 08:35:17;;;;;;;5.57;5.00;;;11.10;75.80;;;;;;5014518;28;20030;-62
2021/04/02 08:38:00;;;;;;;6.15;4.90;;;11.20;75.30;;;;;;4996435;28;20069;-61
2021/04/02 08:40:26;;;;;;;7.18;4.88;;;11.10;75.50;;;;;;5014208;28;20030;-60
2021/04/02 08:43:01;;;;;;;6.80;4.53;;;11.10;75.40;;;;;;5014341;28;20042;-59
2021/04/02 08:45:38;;;;;;;5.10;4.22;;;11.20;75.90;;;;;;4994926;28;20083;-60
2021/04/02 08:48:05;;;;;;;10.60;4.88;;;11.10;75.70;;;;;;5007582;28;20177;-61
2021/04/02 08:50:31;;;;;;;11.02;4.75;;;11.60;83.10;;;;;;5004623;28;20144;-62
2021/04/02 08:53:05;;;;;;;9.07;4.80;;;13.90;97.20;;;;;;4985161;28;20023;-61
2021/04/02 08:55:31;;;;;;;6.28;4.80;;;13.20;83.40;;;;;;4994167;28;20138;-62
2021/04/02 08:57:57;;;;;;;6.00;4.60;;;13.00;80.90;;;;;;5010750;28;20067;-61
2021/04/02 09:00:24;;;;;;;5.93;4.10;;;12.80;78.40;;;;;;4988867;28;20467;-61
2021/04/02 09:02:50;;;;;;;10.13;5.28;;;12.30;78.50;;;;;;5009279;28;20140;-60
2021/04/02 09:05:16;;;;;;;5.60;4.90;;;12.10;79.10;;;;;;4989083;28;20519;-61
2021/04/02 09:07:43;;;;;;;8.52;6.60;;;12.00;79.50;;;;;;4999328;28;20112;-60
2021/04/02 09:10:12;;;;;;;9.98;6.93;;;11.80;80.40;;;;;;4994183;28;20033;-62
2021/04/02 09:12:38;;;;;;;7.43;6.18;;;12.20;83.70;;;;;;4976124;28;20166;-61
2021/04/02 09:15:04;;;;;;;10.60;5.82;;;12.20;82.40;;;;;;4976020;28;20121;-60
2021/04/02 09:17:29;;;;;;;8.93;6.80;;;12.50;80.60;;;;;;4992298;28;20035;-61
2021/04/02 09:19:55;;;;;;;6.85;5.10;;;12.70;80.70;;;;;;4993472;28;20042;-61
2021/04/02 09:22:23;;;;;;;6.70;4.47;;;12.70;81.10;;;;;;4993096;28;20097;-71
2021/04/02 09:24:49;;;;;;;5.38;4.88;;;12.30;78.00;;;;;;4994956;28;20025;-62
2021/04/02 09:27:20;;;;;;;7.65;4.45;;;12.20;77.30;;;;;;5012538;28;20042;-61
2021/04/02 09:29:48;;;;;;;5.13;3.88;;;12.00;77.80;;;;;;4979170;28;20136;-62
2021/04/02 09:32:14;;;;;;;4.95;4.45;;;12.10;77.40;;;;;;5012870;28;20030;-62
2021/04/02 09:34:40;;;;;;;5.72;4.75;;;12.20;76.20;;;;;;4994613;28;20041;-60
2021/04/02 09:37:07;;;;;;;5.93;3.97;;;12.00;76.30;;;;;;5012392;28;20057;-61
2021/04/02 09:39:36;;;;;;;9.40;4.68;;;12.00;77.20;;;;;;4995142;28;20069;-63
2021/04/02 09:42:04;;;;;;;4.90;4.13;;;12.00;76.60;;;;;;4994540;28;20058;-62
2021/04/02 09:44:33;;;;;;;4.30;3.42;;;12.10;76.60;;;;;;4985792;28;20430;-61
2021/04/02 09:47:12;;;;;;;8.13;6.15;;;12.20;75.70;;;;;;4985246;28;20133;-62
2021/04/02 09:49:40;;;;;;;7.22;4.10;;;12.10;76.50;;;;;;4984100;28;20030;-61
2021/04/02 09:52:07;;;;;;;7.25;4.63;;;12.10;75.20;;;;;;5001822;28;20026;-61
2021/04/02 09:54:34;;;;;;;4.82;4.15;;;12.00;76.30;;;;;;4997902;28;20069;-62
2021/04/02 09:57:08;;;;;;;6.50;4.38;;;12.20;76.00;;;;;;4992499;28;20114;-60
2021/04/02 09:59:34;;;;;;;5.65;4.30;;;12.20;75.40;;;;;;4993785;28;20056;-61
2021/04/02 10:02:00;;;;;;;8.90;3.97;;;12.30;75.10;;;;;;4985864;28;20026;-61
2021/04/02 10:04:26;;;;;;;5.75;4.22;;;12.20;74.70;;;;;;4973782;28;20027;-62
2021/04/02 10:06:52;;;;;;;5.50;4.55;;;12.10;74.90;;;;;;4992168;28;20034;-61
2021/04/02 10:09:18;;;;;;;6.68;4.68;;;12.10;75.20;;;;;;4974750;28;20073;-60
2021/04/02 10:11:47;;;;;;;4.97;4.30;;;12.10;74.80;;;;;;4974783;28;20054;-48
2021/04/02 10:14:14;;;;;;;7.78;5.53;;;12.00;75.50;;;;;;4994353;28;20045;-62
2021/04/02 10:16:40;;;;;;;6.53;4.55;;;13.70;82.00;;;;;;4982501;28;20021;-61
2021/04/02 10:19:07;;;;;;;5.78;4.95;;;13.00;73.90;;;;;;5009416;28;20041;-61
2021/04/02 10:21:34;;;;;;;7.60;4.60;;;12.80;73.10;;;;;;4986629;28;20026;-62
2021/04/02 10:24:00;;;;;;;5.07;3.67;;;12.70;73.90;;;;;;4966639;28;20086;-62
2021/04/02 10:26:26;;;;;;;6.78;4.30;;;12.70;73.40;;;;;;4982826;28;20038;-61
2021/04/02 10:28:52;;;;;;;4.97;4.45;;;12.60;73.30;;;;;;5001236;28;20534;-61
2021/04/02 10:31:18;;;;;;;5.45;4.88;;;12.50;73.00;;;;;;5000300;28;20015;-62
2021/04/02 10:33:46;;;;;;;7.32;4.85;;;12.50;73.40;;;;;;4984268;28;20030;-62
2021/04/02 10:36:13;;;;;;;6.20;4.28;;;12.50;73.30;;;;;;4985776;28;20026;-63
2021/04/02 10:38:39;;;;;;;6.20;4.55;;;12.70;72.90;;;;;;4984744;28;20320;-63
2021/04/02 10:41:06;;;;;;;5.30;4.07;;;12.70;72.90;;;;;;4984090;28;20045;-64
2021/04/02 10:43:32;;;;;;;6.40;5.32;;;12.70;72.80;;;;;;4985696;28;20166;-62
2021/04/02 10:45:59;;;;;;;15.18;5.38;;;12.80;72.40;;;;;;4984044;28;20497;-62
2021/04/02 10:48:25;;;;;;;11.48;6.15;;;12.80;75.00;;;;;;4991990;28;20026;-61
2021/04/02 10:50:51;;;;;;;9.90;5.22;;;12.90;78.50;;;;;;5001416;28;20084;-61
2021/04/02 10:53:17;;;;;;;5.90;4.28;;;13.00;79.30;;;;;;4993207;28;20114;-62
2021/04/02 10:55:44;;;;;;;6.70;3.55;;;13.20;75.50;;;;;;4983407;28;20031;-62
2021/04/02 10:58:11;;;;;;;4.47;4.03;;;13.40;76.90;;;;;;4999265;28;20109;-62
2021/04/02 11:00:38;;;;;;;13.75;9.38;;;13.60;74.20;;;;;;4982128;28;20097;-61
2021/04/02 11:03:05;;;;;;;26.23;14.32;;;13.80;74.20;;;;;;4998191;28;20471;-63
2021/04/02 11:05:32;;;;;;;6.60;5.50;;;14.00;77.60;;;;;;4979506;28;20054;-62
2021/04/02 11:07:59;;;;;;;7.93;5.22;;;14.10;72.50;;;;;;4968726;28;20130;-61
2021/04/02 11:10:31;;;;;;;8.85;5.38;;;14.00;73.50;;;;;;4988756;28;20026;-62
2021/04/02 11:12:57;;;;;;;7.80;5.30;;;14.40;72.00;;;;;;5007840;28;20030;-61
2021/04/02 11:15:23;;;;;;;10.88;6.82;;;14.50;70.40;;;;;;4997535;28;20025;-61
2021/04/02 11:17:50;;;;;;;6.88;5.32;;;14.40;71.60;;;;;;5000748;28;20034;-61
2021/04/02 11:20:18;;;;;;;7.18;4.63;;;13.90;71.40;;;;;;4989472;28;20034;-61
2021/04/02 11:22:44;;;;;;;5.25;4.70;;;14.00;69.00;;;;;;4981912;28;20026;-63
2021/04/02 11:25:11;;;;;;;5.85;5.15;;;14.00;68.50;;;;;;4980642;28;20476;-63
2021/04/02 11:27:37;;;;;;;5.30;4.63;;;14.00;68.40;;;;;;4982172;28;20030;-63
2021/04/02 11:30:08;;;;;;;5.07;4.35;;;13.80;68.50;;;;;;4986740;28;20110;-63
2021/04/02 11:32:34;;;;;;;7.00;5.32;;;13.70;68.80;;;;;;4982677;28;20101;-63
2021/04/02 11:35:00;;;;;;;7.55;4.38;;;13.90;68.80;;;;;;4976719;28;20047;-63
2021/04/02 11:37:27;;;;;;;6.85;5.38;;;13.90;68.00;;;;;;4979844;28;20137;-63
2021/04/02 11:39:53;;;;;;;14.77;5.03;;;13.40;68.90;;;;;;4998824;28;20049;-61
2021/04/02 11:42:18;;;;;;;4.40;3.83;;;13.30;69.10;;;;;;4982560;28;20098;-62
2021/04/02 11:44:44;;;;;;;5.63;5.03;;;13.20;69.10;;;;;;5000434;28;20056;-61
2021/04/02 11:47:10;;;;;;;4.95;4.45;;;13.40;68.50;;;;;;4992211;28;20036;-61
2021/04/02 11:49:37;;;;;;;9.75;4.50;;;13.70;67.70;;;;;;5009394;28;20185;-62
2021/04/02 11:52:04;;;;;;;9.23;4.45;;;13.80;67.40;;;;;;5003595;28;20045;-62
2021/04/02 11:54:30;;;;;;;7.47;4.60;;;14.10;66.10;;;;;;4983987;28;20034;-61
2021/04/02 11:56:55;;;;;;;5.00;3.92;;;14.30;65.50;;;;;;4980271;28;20092;-61
2021/04/02 11:59:21;;;;;;;5.85;4.88;;;14.40;64.80;;;;;;4999595;28;20061;-62
2021/04/02 12:01:47;;;;;;;6.30;4.18;;;15.10;65.30;;;;;;4998946;28;20026;-62
2021/04/02 12:04:14;;;;;;;5.75;4.50;;;15.90;63.50;;;;;;4981157;28;20042;-62
2021/04/02 12:06:40;;;;;;;4.82;4.22;;;16.60;60.10;;;;;;5003263;28;20030;-61
2021/04/02 12:09:06;;;;;;;4.57;4.13;;;15.80;59.30;;;;;;4983468;28;20075;-61
2021/04/02 12:11:32;;;;;;;6.78;4.20;;;16.20;59.90;;;;;;4983251;28;20021;-61
2021/04/02 12:13:58;;;;;;;6.78;4.10;;;16.30;58.80;;;;;;5000247;28;20026;-61
2021/04/02 12:16:25;;;;;;;6.60;4.18;;;16.50;58.30;;;;;;4992313;28;20046;-61
2021/04/02 12:18:51;;;;;;;12.13;5.18;;;16.40;58.60;;;;;;5009903;28;20030;-61
2021/04/02 12:21:16;;;;;;;5.45;4.28;;;17.40;58.60;;;;;;4992626;28;20049;-61
2021/04/02 12:23:43;;;;;;;4.25;3.83;;;18.00;55.90;;;;;;5009030;28;20118;-62
2021/04/02 12:26:08;;;;;;;8.05;4.35;;;18.50;53.40;;;;;;5010227;28;20128;-60
2021/04/02 12:28:34;;;;;;;7.22;4.35;;;17.80;54.30;;;;;;4992368;28;20037;-61
2021/04/02 12:31:01;;;;;;;5.03;4.03;;;18.30;54.80;;;;;;5010388;28;20022;-61
2021/04/02 12:33:28;;;;;;;5.38;4.03;;;18.30;53.60;;;;;;4992190;28;20034;-61
2021/04/02 12:35:54;;;;;;;5.30;4.38;;;18.80;53.00;;;;;;5010678;28;20082;-61
2021/04/02 12:38:20;;;;;;;6.05;4.03;;;18.80;53.30;;;;;;5010754;28;20527;-62
2021/04/02 12:40:45;;;;;;;4.40;4.00;;;18.60;52.60;;;;;;4992401;28;20169;-63
2021/04/02 12:43:11;;;;;;;8.38;4.63;;;18.60;52.80;;;;;;4992592;28;20026;-61
2021/04/02 12:45:36;;;;;;;5.75;4.18;;;19.10;52.70;;;;;;5009863;28;20030;-62
2021/04/02 12:48:02;;;;;;;5.03;4.30;;;19.20;52.20;;;;;;5009959;28;20152;-62
2021/04/02 12:50:28;;;;;;;7.22;4.10;;;19.50;51.80;;;;;;4991747;28;20523;-61
2021/04/02 12:52:55;;;;;;;4.55;3.72;;;19.30;51.10;;;;;;5010531;28;20390;-62
2021/04/02 12:55:26;;;;;;;4.35;3.50;;;20.10;51.30;;;;;;5010513;28;20025;-62